createdAt,value
2023-04-01T00:00:18.380Z,27.40
2023-04-01T00:01:18.387Z,27.40
2023-04-01T00:02:18.439Z,27.43
2023-04-01T00:03:18.608Z,27.48
2023-04-01T00:04:18.492Z,27.47
2023-04-01T00:05:18.486Z,27.41
2023-04-01T00:06:18.519Z,27.37
2023-04-01T00:07:18.518Z,27.36
2023-04-01T00:08:18.554Z,27.40
2023-04-01T00:09:18.582Z,27.34
2023-04-01T00:10:18.586Z,27.36
2023-04-01T00:11:20.499Z,27.38
2023-04-01T00:12:18.647Z,27.30
2023-04-01T00:13:18.667Z,27.31
2023-04-01T00:14:18.691Z,27.29
2023-04-01T00:15:18.696Z,27.25
2023-04-01T00:16:22.151Z,27.22
2023-04-01T00:17:18.724Z,27.28
2023-04-01T00:18:18.716Z,27.28
2023-04-01T00:19:18.742Z,27.25
2023-04-01T00:20:18.705Z,27.29
2023-04-01T00:21:18.717Z,27.32
2023-04-01T00:22:18.683Z,27.36
2023-04-01T00:23:18.669Z,27.31
2023-04-01T00:24:18.662Z,27.33
2023-04-01T00:25:18.670Z,27.38
2023-04-01T00:26:18.641Z,27.38
2023-04-01T00:27:18.646Z,27.35
2023-04-01T00:28:18.647Z,27.37
2023-04-01T00:29:18.676Z,27.40
2023-04-01T00:30:18.640Z,27.39
2023-04-01T00:31:18.649Z,27.44
2023-04-01T00:32:18.624Z,27.46
2023-04-01T00:33:18.598Z,27.43
2023-04-01T00:34:18.640Z,27.46
2023-04-01T00:35:18.591Z,27.48
2023-04-01T00:36:18.632Z,27.46
2023-04-01T00:37:18.578Z,27.47
2023-04-01T00:38:18.580Z,27.43
2023-04-01T00:39:18.601Z,27.42
2023-04-01T00:40:18.558Z,27.45
2023-04-01T00:41:18.551Z,27.46
2023-04-01T00:42:18.546Z,27.46
2023-04-01T00:43:18.572Z,27.45
2023-04-01T00:44:18.597Z,27.43
2023-04-01T00:45:18.543Z,27.45
2023-04-01T00:46:18.561Z,27.44
2023-04-01T00:47:18.529Z,27.45
2023-04-01T00:48:18.510Z,27.46
2023-04-01T00:49:18.528Z,27.47
2023-04-01T00:50:18.516Z,27.45
2023-04-01T00:51:18.504Z,27.45
2023-04-01T00:52:18.485Z,27.47
2023-04-01T00:53:18.480Z,27.46
2023-04-01T00:54:18.485Z,27.46
2023-04-01T00:55:18.481Z,27.46
2023-04-01T00:56:18.461Z,27.44
2023-04-01T00:57:18.494Z,27.49
2023-04-01T00:58:18.464Z,27.47
2023-04-01T00:59:18.508Z,27.47
2023-04-01T01:00:18.518Z,27.45
2023-04-01T01:01:18.581Z,27.45
2023-04-01T01:02:18.743Z,27.48
2023-04-01T01:03:18.636Z,27.46
2023-04-01T01:04:18.651Z,27.49
2023-04-01T01:05:18.663Z,27.47
2023-04-01T01:06:18.689Z,27.47
2023-04-01T01:07:18.714Z,27.48
2023-04-01T01:08:18.744Z,27.45
2023-04-01T01:09:18.792Z,27.48
2023-04-01T01:10:18.818Z,27.51
2023-04-01T01:11:18.832Z,27.52
2023-04-01T01:12:18.878Z,27.47
2023-04-01T01:13:18.910Z,27.47
2023-04-01T01:14:18.962Z,27.43
2023-04-01T01:15:18.977Z,27.48
2023-04-01T01:16:19.020Z,27.48
2023-04-01T01:17:19.034Z,27.50
2023-04-01T01:18:19.058Z,27.49
2023-04-01T01:19:19.088Z,27.51
2023-04-01T01:20:26.102Z,27.47
2023-04-01T01:21:20.090Z,27.51
2023-04-01T01:22:19.079Z,27.46
2023-04-01T01:23:19.085Z,27.44
2023-04-01T01:24:19.106Z,27.46
2023-04-01T01:25:19.090Z,27.46
2023-04-01T01:26:19.072Z,27.48
2023-04-01T01:27:19.072Z,27.50
2023-04-01T01:28:19.044Z,27.48
2023-04-01T01:29:19.115Z,27.45
2023-04-01T01:30:19.028Z,27.46
2023-04-01T01:31:19.097Z,27.42
2023-04-01T01:32:19.011Z,27.43
2023-04-01T01:33:19.038Z,27.45
2023-04-01T01:34:19.009Z,27.39
2023-04-01T01:35:19.008Z,27.39
2023-04-01T01:36:19.022Z,27.45
2023-04-01T01:37:19.027Z,27.43
2023-04-01T01:38:19.042Z,27.40
2023-04-01T01:39:19.067Z,27.40
2023-04-01T01:40:19.087Z,27.44
2023-04-01T01:41:19.097Z,27.46
2023-04-01T01:42:19.110Z,27.45
2023-04-01T01:43:19.150Z,27.44
2023-04-01T01:44:19.197Z,27.45
2023-04-01T01:45:19.169Z,27.41
2023-04-01T01:46:19.216Z,27.44
2023-04-01T01:47:19.215Z,27.44
2023-04-01T01:48:19.256Z,27.40
2023-04-01T01:49:19.255Z,27.40
2023-04-01T01:50:19.291Z,27.38
2023-04-01T01:51:19.282Z,27.37
2023-04-01T01:52:19.323Z,27.37
2023-04-01T01:53:19.324Z,27.37
2023-04-01T01:54:19.359Z,27.39
2023-04-01T01:55:19.380Z,27.39
2023-04-01T01:56:19.390Z,27.35
2023-04-01T01:57:19.433Z,27.34
2023-04-01T01:58:19.444Z,27.34
2023-04-01T01:59:19.461Z,27.37
2023-04-01T02:00:19.494Z,27.36
2023-04-01T02:01:19.503Z,27.37
2023-04-01T02:02:19.513Z,27.36
2023-04-01T02:03:19.528Z,27.35
2023-04-01T02:04:19.622Z,27.35
2023-04-01T02:05:19.605Z,27.34
2023-04-01T02:06:19.644Z,27.36
2023-04-01T02:07:19.645Z,27.39
2023-04-01T02:08:19.642Z,27.38
2023-04-01T02:09:19.687Z,27.37
2023-04-01T02:10:19.717Z,27.36
2023-04-01T02:11:19.731Z,27.33
2023-04-01T02:12:19.766Z,27.37
2023-04-01T02:13:19.794Z,27.35
2023-04-01T02:14:19.794Z,27.35
2023-04-01T02:15:19.825Z,27.36
2023-04-01T02:16:19.877Z,27.37
2023-04-01T02:17:19.924Z,27.35
2023-04-01T02:18:19.908Z,27.32
2023-04-01T02:19:19.939Z,27.31
2023-04-01T02:20:19.940Z,27.34
2023-04-01T02:21:19.955Z,27.32
2023-04-01T02:22:19.981Z,27.34
2023-04-01T02:23:20.000Z,27.33
2023-04-01T02:24:20.038Z,27.34
2023-04-01T02:25:20.098Z,27.30
2023-04-01T02:26:20.080Z,27.33
2023-04-01T02:27:20.099Z,27.36
2023-04-01T02:28:20.128Z,27.30
2023-04-01T02:29:20.160Z,27.34
2023-04-01T02:30:20.191Z,27.36
2023-04-01T02:31:20.221Z,27.36
2023-04-01T02:32:20.216Z,27.32
2023-04-01T02:33:20.251Z,27.29
2023-04-01T02:34:20.296Z,27.26
2023-04-01T02:35:20.333Z,27.24
2023-04-01T02:36:20.388Z,27.26
2023-04-01T02:37:20.363Z,27.29
2023-04-01T02:38:20.400Z,27.28
2023-04-01T02:39:20.412Z,27.31
2023-04-01T02:40:20.446Z,27.33
2023-04-01T02:41:20.450Z,27.29
2023-04-01T02:42:20.475Z,27.29
2023-04-01T02:43:20.510Z,27.29
2023-04-01T02:44:20.529Z,27.28
2023-04-01T02:45:20.576Z,27.29
2023-04-01T02:46:20.650Z,27.24
2023-04-01T02:47:20.591Z,27.22
2023-04-01T02:48:20.629Z,27.24
2023-04-01T02:49:20.654Z,27.20
2023-04-01T02:50:20.737Z,27.22
2023-04-01T02:51:20.709Z,27.18
2023-04-01T02:52:20.749Z,27.18
2023-04-01T02:53:20.749Z,27.18
2023-04-01T02:54:20.814Z,27.22
2023-04-01T02:55:20.831Z,27.17
2023-04-01T02:56:20.848Z,27.22
2023-04-01T02:57:20.889Z,27.23
2023-04-01T02:58:20.920Z,27.23
2023-04-01T02:59:20.908Z,27.20
2023-04-01T03:00:20.935Z,27.20
2023-04-01T03:01:20.970Z,27.22
2023-04-01T03:02:21.008Z,27.20
2023-04-01T03:03:21.044Z,27.22
2023-04-01T03:04:21.032Z,27.17
2023-04-01T03:05:21.054Z,27.19
2023-04-01T03:06:21.076Z,27.20
2023-04-01T03:07:21.104Z,27.18
2023-04-01T03:08:21.135Z,27.15
2023-04-01T03:09:21.213Z,27.15
2023-04-01T03:10:21.199Z,27.16
2023-04-01T03:11:21.240Z,27.15
2023-04-01T03:12:21.269Z,27.13
2023-04-01T03:13:21.281Z,27.19
2023-04-01T03:14:21.316Z,27.15
2023-04-01T03:15:21.349Z,27.17
2023-04-01T03:16:21.394Z,27.11
2023-04-01T03:17:21.426Z,27.14
2023-04-01T03:18:21.435Z,27.14
2023-04-01T03:19:21.469Z,27.18
2023-04-01T03:20:21.507Z,27.18
2023-04-01T03:21:21.526Z,27.17
2023-04-01T03:22:21.537Z,27.18
2023-04-01T03:23:21.577Z,27.17
2023-04-01T03:24:21.613Z,27.15
2023-04-01T03:25:21.644Z,27.15
2023-04-01T03:26:21.684Z,27.14
2023-04-01T03:27:21.697Z,27.18
2023-04-01T03:28:21.735Z,27.17
2023-04-01T03:29:21.787Z,27.15
2023-04-01T03:30:21.886Z,27.16
2023-04-01T03:31:23.748Z,27.17
2023-04-01T03:32:21.889Z,27.14
2023-04-01T03:33:21.892Z,27.16
2023-04-01T03:34:21.926Z,27.16
2023-04-01T03:35:21.948Z,27.16
2023-04-01T03:36:22.048Z,27.18
2023-04-01T03:37:21.981Z,27.17
2023-04-01T03:38:22.033Z,27.17
2023-04-01T03:39:22.049Z,27.14
2023-04-01T03:40:22.084Z,27.16
2023-04-01T03:41:22.119Z,27.15
2023-04-01T03:42:22.128Z,27.13
2023-04-01T03:43:22.154Z,27.15
2023-04-01T03:44:22.196Z,27.15
2023-04-01T03:45:22.233Z,27.14
2023-04-01T03:46:22.272Z,27.18
2023-04-01T03:47:22.337Z,27.16
2023-04-01T03:48:22.305Z,27.17
2023-04-01T03:49:22.362Z,27.17
2023-04-01T03:50:22.381Z,27.13
2023-04-01T03:51:22.411Z,27.13
2023-04-01T03:52:22.417Z,27.10
2023-04-01T03:53:22.464Z,27.16
2023-04-01T03:54:22.492Z,27.17
2023-04-01T03:55:22.516Z,27.15
2023-04-01T03:56:22.539Z,27.12
2023-04-01T03:57:22.588Z,27.16
2023-04-01T03:58:22.616Z,27.13
2023-04-01T03:59:22.655Z,27.12
2023-04-01T04:00:22.699Z,27.14
2023-04-01T04:01:22.716Z,27.12
2023-04-01T04:02:22.821Z,27.12
2023-04-01T04:03:22.887Z,27.12
2023-04-01T04:04:22.862Z,27.11
2023-04-01T04:05:22.849Z,27.13
2023-04-01T04:06:22.873Z,27.13
2023-04-01T04:07:22.904Z,27.15
2023-04-01T04:08:22.935Z,27.16
2023-04-01T04:09:22.958Z,27.12
2023-04-01T04:10:22.989Z,27.13
2023-04-01T04:11:23.040Z,27.16
2023-04-01T04:12:23.071Z,27.12
2023-04-01T04:13:23.102Z,27.13
2023-04-01T04:14:23.121Z,27.10
2023-04-01T04:15:23.170Z,27.11
2023-04-01T04:16:23.194Z,27.15
2023-04-01T04:17:23.244Z,27.14
2023-04-01T04:18:23.258Z,27.17
2023-04-01T04:19:23.291Z,27.14
2023-04-01T04:20:23.318Z,27.16
2023-04-01T04:21:23.345Z,27.15
2023-04-01T04:22:23.414Z,27.15
2023-04-01T04:23:23.423Z,27.13
2023-04-01T04:24:23.453Z,27.13
2023-04-01T04:25:23.495Z,27.11
2023-04-01T04:26:23.526Z,27.13
2023-04-01T04:27:23.559Z,27.12
2023-04-01T04:28:23.570Z,27.16
2023-04-01T04:29:23.601Z,27.13
2023-04-01T04:30:23.642Z,27.13
2023-04-01T04:31:23.707Z,27.09
2023-04-01T04:32:23.761Z,27.14
2023-04-01T04:33:23.746Z,27.14
2023-04-01T04:34:23.800Z,27.16
2023-04-01T04:35:23.803Z,27.12
2023-04-01T04:36:23.878Z,27.13
2023-04-01T04:37:23.870Z,27.13
2023-04-01T04:38:23.917Z,27.10
2023-04-01T04:39:23.951Z,27.12
2023-04-01T04:40:23.966Z,27.11
2023-04-01T04:41:23.992Z,27.10
2023-04-01T04:42:24.021Z,27.11
2023-04-01T04:43:24.060Z,27.11
2023-04-01T04:44:24.090Z,27.08
2023-04-01T04:45:24.141Z,27.08
2023-04-01T04:46:24.218Z,27.11
2023-04-01T04:47:24.260Z,27.09
2023-04-01T04:48:24.255Z,27.10
2023-04-01T04:49:24.283Z,27.10
2023-04-01T04:50:24.305Z,27.12
2023-04-01T04:51:24.332Z,27.12
2023-04-01T04:52:24.389Z,27.12
2023-04-01T04:53:24.389Z,27.11
2023-04-01T04:54:24.454Z,27.10
2023-04-01T04:55:24.479Z,27.11
2023-04-01T04:56:24.481Z,27.09
2023-04-01T04:57:24.569Z,27.11
2023-04-01T04:58:24.564Z,27.12
2023-04-01T04:59:24.581Z,27.12
2023-04-01T05:00:24.611Z,27.13
2023-04-01T05:01:24.651Z,27.12
2023-04-01T05:02:24.812Z,27.11
2023-04-01T05:03:24.818Z,27.13
2023-04-01T05:04:24.733Z,27.12
2023-04-01T05:05:24.748Z,27.12
2023-04-01T05:06:24.785Z,27.13
2023-04-01T05:07:24.819Z,27.17
2023-04-01T05:08:24.868Z,27.13
2023-04-01T05:09:24.896Z,27.16
2023-04-01T05:10:24.906Z,27.12
2023-04-01T05:11:24.931Z,27.12
2023-04-01T05:12:24.976Z,27.14
2023-04-01T05:13:25.010Z,27.12
2023-04-01T05:14:25.048Z,27.14
2023-04-01T05:15:25.081Z,27.14
2023-04-01T05:16:25.251Z,27.14
2023-04-01T05:17:25.184Z,27.13
2023-04-01T05:18:25.174Z,27.12
2023-04-01T05:19:25.222Z,27.12
2023-04-01T05:20:25.239Z,27.15
2023-04-01T05:21:25.280Z,27.12
2023-04-01T05:22:25.307Z,27.13
2023-04-01T05:23:25.371Z,27.12
2023-04-01T05:24:25.390Z,27.11
2023-04-01T05:25:25.415Z,27.12
2023-04-01T05:26:25.448Z,27.13
2023-04-01T05:27:25.513Z,27.14
2023-04-01T05:28:25.511Z,27.13
2023-04-01T05:29:25.539Z,27.13
2023-04-01T05:30:25.571Z,27.12
2023-04-01T05:31:25.748Z,27.10
2023-04-01T05:32:25.700Z,27.14
2023-04-01T05:33:25.697Z,27.17
2023-04-01T05:34:25.703Z,27.12
2023-04-01T05:35:25.777Z,27.10
2023-04-01T05:36:25.780Z,27.13
2023-04-01T05:37:25.846Z,27.15
2023-04-01T05:38:25.842Z,27.14
2023-04-01T05:39:25.897Z,27.10
2023-04-01T05:40:25.908Z,27.12
2023-04-01T05:41:25.933Z,27.13
2023-04-01T05:42:26.009Z,27.10
2023-04-01T05:43:26.023Z,27.09
2023-04-01T05:44:26.064Z,27.13
2023-04-01T05:45:26.173Z,27.12
2023-04-01T05:46:26.155Z,27.11
2023-04-01T05:47:26.213Z,27.13
2023-04-01T05:48:26.217Z,27.12
2023-04-01T05:49:27.701Z,27.11
2023-04-01T05:50:26.473Z,27.13
2023-04-01T05:51:26.513Z,27.11
2023-04-01T05:52:26.573Z,27.14
2023-04-01T05:53:26.571Z,27.12
2023-04-01T05:54:26.619Z,27.12
2023-04-01T05:55:26.626Z,27.13
2023-04-01T05:56:26.664Z,27.14
2023-04-01T05:57:26.763Z,27.09
2023-04-01T05:58:26.772Z,27.09
2023-04-01T05:59:26.786Z,27.09
2023-04-01T06:00:26.815Z,27.12
2023-04-01T06:01:26.869Z,27.10
2023-04-01T06:02:26.931Z,27.12
2023-04-01T06:03:27.114Z,27.09
2023-04-01T06:04:26.964Z,27.11
2023-04-01T06:05:26.976Z,27.11
2023-04-01T06:06:27.027Z,27.13
2023-04-01T06:07:27.081Z,27.13
2023-04-01T06:08:27.070Z,27.14
2023-04-01T06:09:27.107Z,27.13
2023-04-01T06:10:27.139Z,27.14
2023-04-01T06:11:27.150Z,27.13
2023-04-01T06:12:27.221Z,27.14
2023-04-01T06:13:27.209Z,27.16
2023-04-01T06:14:27.259Z,27.17
2023-04-01T06:15:27.321Z,27.16
2023-04-01T06:16:27.346Z,27.19
2023-04-01T06:17:27.377Z,27.18
2023-04-01T06:18:27.378Z,27.18
2023-04-01T06:19:27.419Z,27.20
2023-04-01T06:20:27.489Z,27.18
2023-04-01T06:21:27.537Z,27.19
2023-04-01T06:22:27.522Z,27.20
2023-04-01T06:23:27.535Z,27.21
2023-04-01T06:24:27.571Z,27.20
2023-04-01T06:25:27.582Z,27.22
2023-04-01T06:26:27.626Z,27.20
2023-04-01T06:27:27.635Z,27.23
2023-04-01T06:28:27.693Z,27.20
2023-04-01T06:29:27.709Z,27.23
2023-04-01T06:30:27.767Z,27.21
2023-04-01T06:31:27.861Z,27.20
2023-04-01T06:32:27.790Z,27.17
2023-04-01T06:33:27.812Z,27.21
2023-04-01T06:34:27.832Z,27.21
2023-04-01T06:35:27.867Z,27.20
2023-04-01T06:36:27.943Z,27.18
2023-04-01T06:37:27.934Z,27.18
2023-04-01T06:38:27.950Z,27.19
2023-04-01T06:39:27.972Z,27.19
2023-04-01T06:40:27.994Z,27.21
2023-04-01T06:41:28.009Z,27.22
2023-04-01T06:42:28.048Z,27.23
2023-04-01T06:43:28.087Z,27.23
2023-04-01T06:44:28.084Z,27.21
2023-04-01T06:45:28.136Z,27.22
2023-04-01T06:46:28.210Z,27.23
2023-04-01T06:47:28.213Z,27.25
2023-04-01T06:48:28.171Z,27.23
2023-04-01T06:49:28.206Z,27.26
2023-04-01T06:50:28.242Z,27.24
2023-04-01T06:51:28.257Z,27.26
2023-04-01T06:52:28.272Z,27.25
2023-04-01T06:53:28.296Z,27.24
2023-04-01T06:54:28.310Z,27.22
2023-04-01T06:55:28.348Z,27.21
2023-04-01T06:56:28.452Z,27.21
2023-04-01T06:57:28.432Z,27.18
2023-04-01T06:58:28.403Z,27.18
2023-04-01T06:59:28.428Z,27.19
2023-04-01T07:00:28.436Z,27.16
2023-04-01T07:01:28.482Z,27.16
2023-04-01T07:02:28.485Z,27.13
2023-04-01T07:03:28.483Z,27.14
2023-04-01T07:04:28.494Z,27.12
2023-04-01T07:05:28.499Z,27.14
2023-04-01T07:06:28.528Z,27.09
2023-04-01T07:07:28.498Z,27.08
2023-04-01T07:08:28.531Z,27.07
2023-04-01T07:09:28.544Z,27.09
2023-04-01T07:10:28.568Z,27.08
2023-04-01T07:11:28.560Z,27.06
2023-04-01T07:12:28.570Z,27.08
2023-04-01T07:13:28.582Z,27.07
2023-04-01T07:14:28.570Z,27.05
2023-04-01T07:15:28.581Z,27.03
2023-04-01T07:16:28.636Z,27.04
2023-04-01T07:17:28.614Z,27.05
2023-04-01T07:18:28.594Z,27.05
2023-04-01T07:19:28.601Z,27.06
2023-04-01T07:20:28.611Z,27.04
2023-04-01T07:21:28.620Z,27.04
2023-04-01T07:22:28.610Z,27.02
2023-04-01T07:23:28.635Z,27.04
2023-04-01T07:24:28.632Z,27.05
2023-04-01T07:25:28.644Z,27.08
2023-04-01T07:26:28.653Z,27.09
2023-04-01T07:27:28.654Z,27.10
2023-04-01T07:28:28.693Z,27.11
2023-04-01T07:29:28.648Z,27.10
2023-04-01T07:30:28.888Z,27.13
2023-04-01T07:31:28.713Z,27.11
2023-04-01T07:32:28.686Z,27.12
2023-04-01T07:33:28.648Z,27.13
2023-04-01T07:34:28.663Z,27.13
2023-04-01T07:35:28.671Z,27.13
2023-04-01T07:36:28.679Z,27.15
2023-04-01T07:37:28.684Z,27.14
2023-04-01T07:38:28.726Z,27.14
2023-04-01T07:39:28.670Z,27.14
2023-04-01T07:40:28.684Z,27.14
2023-04-01T07:41:28.697Z,27.16
2023-04-01T07:42:28.679Z,27.15
2023-04-01T07:43:28.676Z,27.16
2023-04-01T07:44:28.676Z,27.16
2023-04-01T07:45:28.680Z,27.17
2023-04-01T07:46:28.769Z,27.17
2023-04-01T07:47:28.713Z,27.16
2023-04-01T07:48:28.701Z,27.19
2023-04-01T07:49:28.701Z,27.17
2023-04-01T07:50:28.728Z,27.17
2023-04-01T07:51:28.716Z,27.17
2023-04-01T07:52:28.723Z,27.18
2023-04-01T07:53:28.756Z,27.18
2023-04-01T07:54:28.734Z,27.14
2023-04-01T07:55:28.745Z,27.16
2023-04-01T07:56:28.748Z,27.15
2023-04-01T07:57:28.810Z,27.14
2023-04-01T07:58:28.717Z,27.16
2023-04-01T07:59:28.743Z,27.18
2023-04-01T08:00:28.741Z,27.16
2023-04-01T08:01:28.715Z,27.18
2023-04-01T08:02:28.784Z,27.22
2023-04-01T08:03:29.007Z,27.22
2023-04-01T08:04:28.802Z,27.19
2023-04-01T08:05:28.718Z,27.18
2023-04-01T08:06:28.736Z,27.21
2023-04-01T08:07:28.725Z,27.22
2023-04-01T08:08:28.723Z,27.23
2023-04-01T08:09:28.745Z,27.22
2023-04-01T08:10:28.746Z,27.26
2023-04-01T08:11:28.749Z,27.27
2023-04-01T08:12:28.772Z,27.31
2023-04-01T08:13:28.804Z,27.31
2023-04-01T08:14:28.778Z,27.30
2023-04-01T08:15:28.787Z,27.32
2023-04-01T08:16:28.817Z,27.33
2023-04-01T08:17:28.796Z,27.34
2023-04-01T08:18:28.781Z,27.34
2023-04-01T08:19:28.775Z,27.33
2023-04-01T08:20:28.779Z,27.32
2023-04-01T08:21:28.785Z,27.33
2023-04-01T08:22:28.822Z,27.34
2023-04-01T08:23:28.799Z,27.35
2023-04-01T08:24:37.139Z,27.36
2023-04-01T08:25:29.804Z,27.39
2023-04-01T08:26:28.797Z,27.39
2023-04-01T08:27:28.843Z,27.38
2023-04-01T08:28:28.797Z,27.40
2023-04-01T08:29:28.804Z,27.40
2023-04-01T08:30:28.771Z,27.39
2023-04-01T08:31:28.801Z,27.40
2023-04-01T08:32:28.818Z,27.40
2023-04-01T08:33:28.761Z,27.39
2023-04-01T08:34:28.740Z,27.40
2023-04-01T08:35:30.420Z,27.39
2023-04-01T08:36:28.817Z,27.40
2023-04-01T08:37:28.742Z,27.40
2023-04-01T08:38:28.730Z,27.40
2023-04-01T08:39:28.700Z,27.39
2023-04-01T08:40:28.731Z,27.40
2023-04-01T08:41:28.709Z,27.39
2023-04-01T08:42:28.696Z,27.37
2023-04-01T08:43:28.677Z,27.40
2023-04-01T08:44:28.688Z,27.39
2023-04-01T08:45:28.686Z,27.38
2023-04-01T08:46:28.686Z,27.39
2023-04-01T08:47:28.685Z,27.40
2023-04-01T08:48:28.649Z,27.39
2023-04-01T08:49:28.658Z,27.39
2023-04-01T08:50:28.623Z,27.37
2023-04-01T08:51:28.634Z,27.37
2023-04-01T08:52:28.640Z,27.38
2023-04-01T08:53:28.617Z,27.39
2023-04-01T08:54:28.612Z,27.38
2023-04-01T08:55:28.591Z,27.40
2023-04-01T08:56:28.594Z,27.40
2023-04-01T08:57:28.644Z,27.40
2023-04-01T08:58:28.586Z,27.40
2023-04-01T08:59:28.570Z,27.43
2023-04-01T09:00:28.573Z,27.40
2023-04-01T09:01:28.566Z,27.40
2023-04-01T09:02:28.663Z,27.43
2023-04-01T09:03:28.592Z,27.42
2023-04-01T09:04:28.558Z,27.43
2023-04-01T09:05:28.546Z,27.43
2023-04-01T09:06:28.545Z,27.43
2023-04-01T09:07:28.518Z,27.42
2023-04-01T09:08:28.504Z,27.45
2023-04-01T09:09:28.523Z,27.44
2023-04-01T09:10:28.490Z,27.45
2023-04-01T09:11:28.560Z,27.46
2023-04-01T09:12:28.496Z,27.42
2023-04-01T09:13:28.470Z,27.44
2023-04-01T09:14:28.469Z,27.44
2023-04-01T09:15:28.497Z,27.44
2023-04-01T09:16:28.518Z,27.44
2023-04-01T09:17:28.479Z,27.40
2023-04-01T09:18:28.439Z,27.38
2023-04-01T09:19:28.470Z,27.39
2023-04-01T09:20:28.450Z,27.38
2023-04-01T09:21:28.426Z,27.36
2023-04-01T09:22:28.438Z,27.36
2023-04-01T09:23:28.421Z,27.37
2023-04-01T09:24:28.435Z,27.36
2023-04-01T09:25:28.440Z,27.36
2023-04-01T09:26:28.406Z,27.37
2023-04-01T09:27:28.405Z,27.35
2023-04-01T09:28:28.418Z,27.34
2023-04-01T09:29:28.504Z,27.34
2023-04-01T09:30:28.544Z,27.34
2023-04-01T09:31:28.604Z,27.33
2023-04-01T09:32:28.647Z,27.35
2023-04-01T09:33:28.659Z,27.31
2023-04-01T09:34:28.865Z,27.32
2023-04-01T09:35:28.754Z,27.31
2023-04-01T09:36:28.796Z,27.31
2023-04-01T09:37:28.817Z,27.30
2023-04-01T09:38:28.971Z,27.25
2023-04-01T09:39:28.898Z,27.25
2023-04-01T09:40:28.932Z,27.26
2023-04-01T09:41:28.973Z,27.28
2023-04-01T09:42:29.060Z,27.24
2023-04-01T09:43:29.082Z,27.23
2023-04-01T09:44:29.125Z,27.19
2023-04-01T09:45:29.192Z,27.20
2023-04-01T09:46:29.254Z,27.21
2023-04-01T09:47:29.310Z,27.20
2023-04-01T09:48:29.296Z,27.18
2023-04-01T09:49:29.349Z,27.19
2023-04-01T09:50:29.380Z,27.20
2023-04-01T09:51:29.431Z,27.18
2023-04-01T09:52:29.500Z,27.19
2023-04-01T09:53:29.536Z,27.15
2023-04-01T09:54:29.600Z,27.14
2023-04-01T09:55:29.669Z,27.17
2023-04-01T09:56:29.695Z,27.17
2023-04-01T09:57:29.823Z,27.20
2023-04-01T09:58:29.810Z,27.17
2023-04-01T09:59:29.847Z,27.19
2023-04-01T10:00:29.916Z,27.19
2023-04-01T10:01:29.974Z,27.15
2023-04-01T10:02:30.048Z,27.13
2023-04-01T10:03:30.076Z,27.14
2023-04-01T10:04:30.092Z,27.13
2023-04-01T10:05:30.178Z,27.11
2023-04-01T10:06:30.173Z,27.10
2023-04-01T10:07:30.256Z,27.09
2023-04-01T10:08:30.271Z,27.09
2023-04-01T10:09:30.307Z,27.10
2023-04-01T10:10:30.370Z,27.10
2023-04-01T10:11:30.422Z,27.07
2023-04-01T10:12:30.471Z,27.07
2023-04-01T10:13:30.522Z,27.10
2023-04-01T10:14:30.574Z,27.03
2023-04-01T10:15:30.648Z,27.00
2023-04-01T10:16:30.725Z,27.04
2023-04-01T10:17:30.737Z,27.04
2023-04-01T10:18:30.770Z,27.04
2023-04-01T10:19:30.824Z,27.02
2023-04-01T10:20:30.871Z,27.00
2023-04-01T10:21:30.892Z,26.98
2023-04-01T10:22:30.951Z,26.99
2023-04-01T10:23:31.004Z,26.98
2023-04-01T10:24:31.053Z,26.95
2023-04-01T10:25:31.297Z,26.95
2023-04-01T10:26:31.121Z,26.94
2023-04-01T10:27:31.200Z,26.95
2023-04-01T10:28:31.239Z,26.97
2023-04-01T10:29:31.283Z,26.92
2023-04-01T10:30:31.339Z,26.89
2023-04-01T10:31:31.403Z,26.87
2023-04-01T10:32:31.456Z,26.85
2023-04-01T10:33:32.005Z,26.87
2023-04-01T10:34:31.543Z,26.82
2023-04-01T10:35:31.778Z,26.83
2023-04-01T10:36:31.680Z,26.80
2023-04-01T10:37:31.713Z,26.81
2023-04-01T10:38:31.732Z,26.81
2023-04-01T10:39:31.810Z,26.79
2023-04-01T10:40:31.884Z,26.81
2023-04-01T10:41:31.886Z,26.79
2023-04-01T10:42:31.943Z,26.78
2023-04-01T10:43:32.016Z,26.80
2023-04-01T10:44:32.040Z,26.77
2023-04-01T10:45:32.384Z,26.75
2023-04-01T10:46:32.238Z,26.71
2023-04-01T10:47:32.267Z,26.70
2023-04-01T10:48:32.285Z,26.70
2023-04-01T10:49:32.319Z,26.70
2023-04-01T10:50:32.408Z,26.70
2023-04-01T10:51:32.469Z,26.69
2023-04-01T10:52:32.503Z,26.68
2023-04-01T10:53:32.504Z,26.69
2023-04-01T10:54:32.534Z,26.66
2023-04-01T10:55:32.839Z,26.66
2023-04-01T10:56:32.608Z,26.65
2023-04-01T10:57:32.804Z,26.64
2023-04-01T10:58:32.702Z,26.62
2023-04-01T10:59:32.714Z,26.60
2023-04-01T11:00:32.756Z,26.60
2023-04-01T11:01:32.800Z,26.61
2023-04-01T11:02:32.853Z,26.58
2023-04-01T11:03:32.923Z,26.57
2023-04-01T11:04:32.847Z,26.57
2023-04-01T11:05:33.106Z,26.55
2023-04-01T11:06:32.895Z,26.57
2023-04-01T11:07:32.919Z,26.53
2023-04-01T11:08:32.939Z,26.52
2023-04-01T11:09:32.992Z,26.51
2023-04-01T11:10:33.045Z,26.49
2023-04-01T11:11:33.058Z,26.48
2023-04-01T11:12:33.057Z,26.44
2023-04-01T11:13:33.099Z,26.46
2023-04-01T11:14:33.102Z,26.46
2023-04-01T11:15:33.427Z,26.43
2023-04-01T11:16:33.188Z,26.40
2023-04-01T11:17:33.236Z,26.41
2023-04-01T11:18:33.228Z,26.40
2023-04-01T11:19:33.250Z,26.37
2023-04-01T11:20:33.332Z,26.36
2023-04-01T11:21:33.331Z,26.35
2023-04-01T11:22:33.375Z,26.36
2023-04-01T11:23:33.397Z,26.34
2023-04-01T11:24:33.434Z,26.33
2023-04-01T11:25:33.683Z,26.28
2023-04-01T11:26:33.518Z,26.30
2023-04-01T11:27:33.515Z,26.26
2023-04-01T11:28:33.564Z,26.22
2023-04-01T11:29:33.625Z,26.16
2023-04-01T11:30:33.715Z,26.14
2023-04-01T11:31:33.813Z,26.05
2023-04-01T11:32:33.880Z,26.07
2023-04-01T11:33:33.778Z,26.06
2023-04-01T11:34:33.841Z,26.10
2023-04-01T11:35:34.570Z,26.07
2023-04-01T11:36:33.880Z,26.09
2023-04-01T11:37:33.856Z,26.11
2023-04-01T11:38:33.853Z,26.10
2023-04-01T11:39:33.844Z,26.10
2023-04-01T11:40:33.875Z,26.03
2023-04-01T11:41:33.882Z,26.07
2023-04-01T11:42:33.877Z,26.07
2023-04-01T11:43:34.232Z,25.99
2023-04-01T11:44:33.926Z,25.99
2023-04-01T11:45:34.165Z,25.96
2023-04-01T11:46:33.994Z,25.96
2023-04-01T11:47:33.939Z,25.92
2023-04-01T11:48:33.928Z,25.88
2023-04-01T11:49:33.926Z,25.89
2023-04-01T11:50:33.985Z,25.87
2023-04-01T11:51:33.965Z,25.86
2023-04-01T11:52:33.947Z,25.76
2023-04-01T11:53:34.000Z,25.75
2023-04-01T11:54:34.026Z,25.79
2023-04-01T11:55:34.270Z,25.83
2023-04-01T11:56:34.055Z,25.81
2023-04-01T11:57:34.104Z,25.86
2023-04-01T11:58:34.077Z,25.90
2023-04-01T11:59:34.078Z,25.84
2023-04-01T12:00:34.108Z,25.91
2023-04-01T12:01:34.113Z,25.91
2023-04-01T12:02:34.217Z,25.92
2023-04-01T12:03:34.273Z,25.91
2023-04-01T12:04:34.203Z,25.98
2023-04-01T12:05:34.439Z,25.97
2023-04-01T12:06:34.160Z,25.98
2023-04-01T12:07:34.193Z,26.00
2023-04-01T12:08:34.191Z,26.01
2023-04-01T12:09:34.242Z,26.01
2023-04-01T12:10:34.237Z,25.99
2023-04-01T12:11:34.219Z,25.97
2023-04-01T12:12:34.229Z,25.92
2023-04-01T12:13:34.249Z,25.70
2023-04-01T12:14:34.244Z,25.60
2023-04-01T12:15:34.593Z,25.65
2023-04-01T12:16:34.325Z,25.67
2023-04-01T12:17:34.341Z,25.73
2023-04-01T12:18:34.321Z,25.73
2023-04-01T12:19:34.359Z,25.68
2023-04-01T12:20:34.395Z,25.77
2023-04-01T12:21:34.384Z,25.71
2023-04-01T12:22:34.421Z,25.52
2023-04-01T12:23:34.452Z,25.50
2023-04-01T12:24:34.486Z,25.64
2023-04-01T12:25:34.707Z,25.58
2023-04-01T12:26:34.520Z,25.60
2023-04-01T12:27:34.571Z,25.49
2023-04-01T12:28:34.568Z,25.46
2023-04-01T12:29:34.570Z,25.48
2023-04-01T12:30:34.586Z,25.49
2023-04-01T12:31:34.680Z,25.39
2023-04-01T12:32:34.684Z,25.41
2023-04-01T12:33:35.986Z,25.50
2023-04-01T12:34:34.746Z,25.55
2023-04-01T12:35:34.933Z,25.47
2023-04-01T12:36:34.785Z,25.47
2023-04-01T12:37:34.787Z,25.38
2023-04-01T12:38:34.819Z,25.43
2023-04-01T12:39:34.850Z,25.36
2023-04-01T12:40:35.028Z,25.41
2023-04-01T12:41:34.897Z,25.49
2023-04-01T12:42:34.918Z,25.50
2023-04-01T12:43:34.934Z,25.52
2023-04-01T12:44:34.999Z,25.53
2023-04-01T12:45:35.419Z,25.54
2023-04-01T12:46:35.112Z,25.56
2023-04-01T12:47:35.104Z,25.53
2023-04-01T12:48:35.115Z,25.53
2023-04-01T12:49:35.121Z,25.51
2023-04-01T12:50:35.142Z,25.53
2023-04-01T12:51:35.193Z,25.47
2023-04-01T12:52:35.167Z,25.50